createdAt,value
2023-05-03T00:00:10.342Z,4.06
2023-05-03T00:02:40.350Z,4.00
2023-05-03T00:05:12.529Z,3.88
2023-05-03T00:07:41.450Z,3.88
2023-05-03T00:10:09.297Z,3.94
2023-05-03T00:12:39.522Z,3.94
2023-05-03T00:15:07.257Z,3.81
2023-05-03T00:17:33.986Z,3.94
2023-05-03T00:20:01.611Z,3.81
2023-05-03T00:22:28.613Z,3.94
2023-05-03T00:24:56.430Z,3.94
2023-05-03T00:27:24.333Z,3.88
2023-05-03T00:29:54.676Z,3.81
2023-05-03T00:32:23.001Z,3.69
2023-05-03T00:34:57.268Z,3.56
2023-05-03T00:37:25.561Z,3.56
2023-05-03T00:39:52.641Z,3.56
2023-05-03T00:42:19.871Z,3.31
2023-05-03T00:44:46.514Z,3.31
2023-05-03T00:47:13.684Z,3.44
2023-05-03T00:49:41.434Z,3.31
2023-05-03T00:52:08.914Z,3.31
2023-05-03T00:54:36.041Z,3.31
2023-05-03T00:57:04.891Z,3.25
2023-05-03T00:59:33.105Z,3.31
2023-05-03T01:02:00.432Z,3.31
2023-05-03T01:04:27.949Z,3.25
2023-05-03T01:07:10.763Z,3.25
2023-05-03T01:09:53.743Z,3.25
2023-05-03T01:12:38.581Z,3.13
2023-05-03T01:15:21.203Z,3.13
2023-05-03T01:17:54.424Z,3.13
2023-05-03T01:20:26.275Z,3.06
2023-05-03T01:22:59.059Z,3.06
2023-05-03T01:25:29.129Z,3.06
2023-05-03T01:27:55.750Z,2.94
2023-05-03T01:30:27.486Z,2.81
2023-05-03T01:33:41.682Z,2.88
2023-05-03T01:36:15.638Z,2.81
2023-05-03T01:38:43.156Z,2.56
2023-05-03T01:41:12.476Z,2.50
2023-05-03T01:43:40.697Z,2.63
2023-05-03T01:46:07.649Z,2.63
2023-05-03T01:48:34.233Z,2.56
2023-05-03T01:51:00.881Z,2.63
2023-05-03T01:53:27.470Z,2.63
2023-05-03T01:55:54.037Z,2.75
2023-05-03T01:58:20.601Z,2.69
2023-05-03T02:00:48.602Z,2.69
2023-05-03T02:03:15.722Z,2.69
2023-05-03T02:05:42.437Z,2.63
2023-05-03T02:08:09.124Z,2.63
2023-05-03T02:10:35.749Z,2.56
2023-05-03T02:13:03.736Z,2.50
2023-05-03T02:15:30.302Z,2.50
2023-05-03T02:17:58.585Z,2.50
2023-05-03T02:20:25.289Z,2.44
2023-05-03T02:22:51.907Z,2.44
2023-05-03T02:25:18.485Z,2.38
2023-05-03T02:27:45.064Z,2.38
2023-05-03T02:30:12.232Z,2.44
2023-05-03T02:32:38.816Z,2.38
2023-05-03T02:35:06.472Z,2.31
2023-05-03T02:37:33.070Z,2.38
2023-05-03T02:39:59.651Z,2.31
2023-05-03T02:42:26.240Z,2.25
2023-05-03T02:44:52.834Z,2.19
2023-05-03T02:47:19.395Z,2.06
2023-05-03T02:49:46.030Z,2.13
2023-05-03T02:52:12.607Z,2.25
2023-05-03T02:54:39.146Z,2.25
2023-05-03T02:57:06.060Z,2.25
2023-05-03T02:59:32.965Z,2.19
2023-05-03T03:01:59.640Z,2.19
2023-05-03T03:04:26.280Z,2.13
2023-05-03T03:06:53.661Z,2.06
2023-05-03T03:09:20.431Z,2.06
2023-05-03T03:11:47.109Z,2.13
2023-05-03T03:14:13.757Z,1.94
2023-05-03T03:16:40.365Z,1.81
2023-05-03T03:19:06.977Z,1.81
2023-05-03T03:21:34.625Z,1.81
2023-05-03T03:24:01.420Z,1.75
2023-05-03T03:26:27.979Z,1.81
2023-05-03T03:28:54.580Z,1.81
2023-05-03T03:31:23.089Z,1.88
2023-05-03T03:33:49.751Z,1.88
2023-05-03T03:36:16.700Z,1.81
2023-05-03T03:38:43.342Z,1.63
2023-05-03T03:41:10.309Z,1.69
2023-05-03T03:43:36.897Z,1.75
2023-05-03T03:46:03.555Z,1.63
2023-05-03T03:48:30.277Z,1.56
2023-05-03T03:50:57.082Z,1.38
2023-05-03T03:53:23.923Z,1.19
2023-05-03T03:55:50.508Z,1.19
2023-05-03T03:58:17.118Z,1.31
2023-05-03T04:00:44.053Z,1.25
2023-05-03T04:03:11.019Z,1.25
2023-05-03T04:05:37.772Z,1.38
2023-05-03T04:08:04.660Z,1.25
2023-05-03T04:10:31.270Z,1.31
2023-05-03T04:12:57.823Z,1.44
2023-05-03T04:15:24.389Z,1.44
2023-05-03T04:17:51.059Z,1.38
2023-05-03T04:20:17.767Z,1.31
2023-05-03T04:22:44.361Z,1.38
2023-05-03T04:25:19.477Z,1.38
2023-05-03T04:27:46.965Z,1.31
2023-05-03T04:30:15.419Z,1.25
2023-05-03T04:32:42.877Z,1.38
2023-05-03T04:35:12.375Z,1.44
2023-05-03T04:37:40.847Z,1.38
2023-05-03T04:40:09.519Z,1.44
2023-05-03T04:42:38.945Z,1.50
2023-05-03T04:45:09.644Z,1.56
2023-05-03T04:47:36.929Z,1.69
2023-05-03T04:50:04.149Z,1.75
2023-05-03T04:52:31.034Z,1.81
2023-05-03T04:54:57.632Z,1.94
2023-05-03T04:57:24.256Z,2.00
2023-05-03T04:59:51.123Z,1.88
2023-05-03T05:02:17.966Z,1.94
2023-05-03T05:04:44.556Z,1.94
2023-05-03T05:07:12.628Z,2.00
2023-05-03T05:09:40.311Z,2.06
2023-05-03T05:12:07.209Z,2.25
2023-05-03T05:14:33.847Z,2.38
2023-05-03T05:17:00.518Z,2.56
2023-05-03T05:19:27.311Z,2.69
2023-05-03T05:21:54.164Z,2.81
2023-05-03T05:24:21.008Z,2.88
2023-05-03T05:26:47.756Z,3.13
2023-05-03T05:29:14.444Z,3.25
2023-05-03T05:31:41.101Z,3.38
2023-05-03T05:34:07.851Z,3.69
2023-05-03T05:36:34.461Z,4.25
2023-05-03T05:39:01.055Z,4.56
2023-05-03T05:41:27.704Z,4.81
2023-05-03T05:43:54.348Z,4.94
2023-05-03T05:46:21.383Z,5.13
2023-05-03T05:48:48.253Z,5.25
2023-05-03T05:51:14.819Z,5.38
2023-05-03T05:53:41.451Z,5.50
2023-05-03T05:56:08.843Z,5.56
2023-05-03T05:58:37.523Z,5.63
2023-05-03T06:01:04.904Z,5.81
2023-05-03T06:03:32.906Z,5.94
2023-05-03T06:05:59.623Z,5.88
2023-05-03T06:08:26.423Z,6.06
2023-05-03T06:10:53.482Z,6.25
2023-05-03T06:13:20.106Z,6.38
2023-05-03T06:15:46.691Z,6.56
2023-05-03T06:18:13.455Z,6.56
2023-05-03T06:20:40.234Z,6.56
2023-05-03T06:23:06.798Z,6.56
2023-05-03T06:25:33.669Z,6.63
2023-05-03T06:28:00.516Z,6.75
2023-05-03T06:30:28.806Z,6.88
2023-05-03T06:32:55.694Z,6.75
2023-05-03T06:35:22.325Z,6.69
2023-05-03T06:37:49.546Z,6.75
2023-05-03T06:40:16.267Z,6.94
2023-05-03T06:42:42.882Z,7.06
2023-05-03T06:45:09.969Z,7.19
2023-05-03T06:47:37.259Z,7.38
2023-05-03T06:50:04.748Z,7.25
2023-05-03T06:52:31.592Z,7.31
2023-05-03T06:54:58.162Z,7.44
2023-05-03T06:57:27.005Z,7.69
2023-05-03T06:59:54.810Z,7.81
2023-05-03T07:02:21.753Z,7.81
2023-05-03T07:04:48.389Z,8.00
2023-05-03T07:07:15.914Z,8.06
2023-05-03T07:09:43.501Z,8.13
2023-05-03T07:12:11.522Z,8.13
2023-05-03T07:14:39.738Z,8.25
2023-05-03T07:17:06.719Z,8.25
2023-05-03T07:19:34.506Z,8.56
2023-05-03T07:22:03.145Z,8.38
2023-05-03T07:24:29.938Z,8.25
2023-05-03T07:26:58.121Z,8.25
2023-05-03T07:29:24.756Z,8.31
2023-05-03T07:31:53.474Z,8.69
2023-05-03T07:34:20.744Z,8.75
2023-05-03T07:36:47.362Z,8.56
2023-05-03T07:39:13.995Z,8.56
2023-05-03T07:41:40.601Z,8.63
2023-05-03T07:44:07.746Z,8.81
2023-05-03T07:46:35.313Z,9.13
2023-05-03T07:49:06.253Z,9.00
2023-05-03T07:51:36.671Z,9.25
2023-05-03T07:54:04.220Z,9.38
2023-05-03T07:56:31.437Z,9.31
2023-05-03T07:59:08.182Z,9.31
2023-05-03T08:01:36.855Z,9.56
2023-05-03T08:04:04.718Z,9.56
2023-05-03T08:06:32.609Z,9.56
2023-05-03T08:08:59.288Z,9.69
2023-05-03T08:11:27.640Z,9.56
2023-05-03T08:13:54.260Z,9.88
2023-05-03T08:16:21.413Z,9.94
2023-05-03T08:18:48.155Z,9.75
2023-05-03T08:21:16.813Z,9.81
2023-05-03T08:23:43.418Z,9.75
2023-05-03T08:26:10.024Z,10.00
2023-05-03T08:28:36.663Z,10.38
2023-05-03T08:31:07.729Z,10.13
2023-05-03T08:33:34.517Z,10.06
2023-05-03T08:36:01.699Z,10.31
2023-05-03T08:38:28.807Z,10.38
2023-05-03T08:40:59.551Z,10.06
2023-05-03T08:43:28.680Z,10.06
2023-05-03T08:45:55.540Z,10.19
2023-05-03T08:48:22.743Z,10.31
2023-05-03T08:50:52.757Z,10.56
2023-05-03T08:53:19.334Z,10.81
2023-05-03T08:55:45.960Z,10.94
2023-05-03T08:58:12.924Z,10.69
2023-05-03T09:00:41.698Z,10.50
2023-05-03T09:03:08.652Z,10.63
2023-05-03T09:05:38.768Z,10.31
2023-05-03T09:08:09.755Z,10.63
2023-05-03T09:10:42.263Z,10.75
2023-05-03T09:13:11.892Z,11.06
2023-05-03T09:15:38.799Z,11.25
2023-05-03T09:18:17.978Z,11.19
2023-05-03T09:20:52.808Z,11.25
2023-05-03T09:23:31.322Z,11.13
2023-05-03T09:25:59.261Z,11.56
2023-05-03T09:28:26.921Z,11.75
2023-05-03T09:31:07.349Z,11.50
2023-05-03T09:33:34.186Z,11.56
2023-05-03T09:36:05.614Z,11.56
2023-05-03T09:38:34.879Z,11.44
2023-05-03T09:41:01.868Z,11.50
2023-05-03T09:43:28.615Z,11.06
2023-05-03T09:46:12.873Z,11.19
2023-05-03T09:48:40.882Z,11.63
2023-05-03T09:51:08.862Z,11.88
2023-05-03T09:53:36.922Z,12.06
2023-05-03T09:56:09.269Z,11.69
2023-05-03T09:58:36.452Z,12.31
2023-05-03T10:01:03.259Z,12.00
2023-05-03T10:03:44.008Z,12.00
2023-05-03T10:06:42.015Z,11.75
2023-05-03T10:09:39.874Z,12.25
2023-05-03T10:12:09.776Z,12.44
2023-05-03T10:14:36.691Z,12.44
2023-05-03T10:17:11.885Z,12.75
2023-05-03T10:20:01.050Z,12.25
2023-05-03T10:22:27.630Z,12.31
2023-05-03T10:25:00.395Z,12.56
2023-05-03T10:27:52.526Z,12.50
2023-05-03T10:30:36.985Z,13.25
2023-05-03T10:33:12.502Z,12.75
2023-05-03T10:35:41.269Z,12.75
2023-05-03T10:38:15.255Z,12.69
2023-05-03T10:40:43.522Z,12.81
2023-05-03T10:43:28.619Z,12.75
2023-05-03T10:46:18.735Z,13.06
2023-05-03T10:49:18.116Z,13.13
2023-05-03T10:51:45.429Z,13.00
2023-05-03T10:54:12.447Z,12.88
2023-05-03T10:56:50.113Z,13.31
2023-05-03T10:59:16.929Z,13.50
2023-05-03T11:01:46.650Z,13.25
2023-05-03T11:04:44.743Z,13.44
2023-05-03T11:07:11.412Z,13.31
2023-05-03T11:09:38.555Z,13.44
2023-05-03T11:12:07.164Z,13.56
2023-05-03T11:14:33.918Z,13.50
2023-05-03T11:17:01.206Z,13.50
2023-05-03T11:19:28.804Z,13.88
2023-05-03T11:21:55.858Z,13.69
2023-05-03T11:24:22.668Z,13.63
2023-05-03T11:26:49.286Z,13.75
2023-05-03T11:29:17.093Z,13.75
2023-05-03T11:31:43.839Z,13.69
2023-05-03T11:34:12.287Z,14.00
2023-05-03T11:36:41.595Z,14.19
2023-05-03T11:39:08.899Z,13.75
2023-05-03T11:41:35.850Z,13.63
2023-05-03T11:44:15.445Z,14.00
2023-05-03T11:46:46.486Z,14.13
2023-05-03T11:49:18.412Z,14.13
2023-05-03T11:51:48.396Z,14.06
2023-05-03T11:54:24.829Z,13.81
2023-05-03T11:56:57.533Z,13.94
2023-05-03T11:59:40.841Z,14.63
2023-05-03T12:02:11.692Z,14.88
2023-05-03T12:04:41.681Z,14.38
2023-05-03T12:07:11.544Z,14.19
2023-05-03T12:09:40.227Z,14.38
2023-05-03T12:12:10.242Z,14.25
2023-05-03T12:14:58.624Z,14.44
2023-05-03T12:17:37.920Z,14.13
2023-05-03T12:22:51.248Z,14.38
2023-05-03T12:25:20.425Z,14.31
2023-05-03T12:27:56.038Z,14.69
2023-05-03T12:30:34.796Z,14.63
2023-05-03T12:33:04.428Z,14.56
2023-05-03T12:35:34.112Z,14.44
2023-05-03T12:38:04.262Z,14.50
2023-05-03T12:40:34.666Z,14.63
2023-05-03T12:43:02.042Z,14.88
2023-05-03T12:45:33.728Z,14.69
2023-05-03T12:48:02.849Z,14.50
2023-05-03T12:50:31.997Z,14.50
2023-05-03T12:53:02.324Z,14.50
2023-05-03T12:55:34.524Z,14.94
2023-05-03T13:00:35.478Z,15.13
2023-05-03T13:05:36.194Z,14.94
2023-05-03T13:08:08.540Z,15.00
2023-05-03T13:10:36.353Z,15.31
2023-05-03T13:13:03.341Z,15.44
2023-05-03T13:15:30.202Z,15.75
2023-05-03T13:17:57.093Z,15.13
2023-05-03T13:20:24.474Z,15.06
2023-05-03T13:22:51.161Z,15.06
2023-05-03T13:25:17.722Z,15.13
2023-05-03T13:27:44.334Z,15.00
2023-05-03T13:30:11.274Z,14.69
2023-05-03T13:32:38.164Z,15.06
2023-05-03T13:35:05.493Z,15.13
2023-05-03T13:37:32.399Z,14.94
2023-05-03T13:39:59.353Z,15.00
2023-05-03T13:42:25.936Z,15.25
2023-05-03T13:44:52.506Z,15.06
2023-05-03T13:47:19.283Z,14.94
2023-05-03T13:49:45.858Z,15.06
2023-05-03T13:52:12.488Z,15.19
2023-05-03T13:54:39.117Z,15.50
2023-05-03T13:57:05.716Z,15.25
2023-05-03T13:59:32.337Z,15.06
2023-05-03T14:01:59.557Z,15.13
2023-05-03T14:04:26.267Z,15.13
2023-05-03T14:06:52.919Z,15.00
2023-05-03T14:09:20.238Z,15.06
2023-05-03T14:11:46.965Z,15.25
2023-05-03T14:14:13.576Z,15.25
2023-05-03T14:16:42.043Z,15.19
2023-05-03T14:19:12.446Z,15.06
2023-05-03T14:21:41.099Z,15.13
2023-05-03T14:24:08.257Z,15.31
2023-05-03T14:26:35.017Z,15.38
2023-05-03T14:29:01.993Z,15.44
2023-05-03T14:31:28.728Z,15.25
2023-05-03T14:33:55.416Z,15.44
2023-05-03T14:36:23.118Z,15.25
2023-05-03T14:38:49.744Z,15.25
2023-05-03T14:41:16.555Z,15.38
2023-05-03T14:43:43.156Z,15.38
2023-05-03T14:46:10.193Z,15.31
2023-05-03T14:48:38.144Z,15.19
2023-05-03T14:51:05.459Z,15.13
2023-05-03T14:53:32.342Z,15.06
2023-05-03T14:55:59.409Z,15.25
2023-05-03T14:58:26.261Z,15.19
2023-05-03T15:00:53.307Z,15.25
2023-05-03T15:03:19.955Z,15.56
2023-05-03T15:05:48.464Z,15.56
2023-05-03T15:08:19.238Z,15.38
2023-05-03T15:10:46.670Z,15.44
2023-05-03T15:13:14.308Z,15.50
2023-05-03T15:15:45.620Z,15.56
2023-05-03T15:18:14.302Z,15.56
2023-05-03T15:20:41.086Z,15.63
2023-05-03T15:23:07.807Z,15.56
2023-05-03T15:25:35.430Z,15.44
2023-05-03T15:28:04.227Z,15.44
2023-05-03T15:30:32.236Z,15.25
2023-05-03T15:32:59.077Z,15.25
2023-05-03T15:35:26.018Z,15.44
2023-05-03T15:37:52.670Z,15.31
2023-05-03T15:40:20.396Z,15.19
2023-05-03T15:42:47.107Z,15.50
2023-05-03T15:45:15.529Z,15.31
2023-05-03T15:47:42.417Z,15.31
2023-05-03T15:50:09.658Z,15.38
2023-05-03T15:52:37.141Z,15.56
2023-05-03T15:55:04.000Z,15.38
2023-05-03T15:57:31.775Z,15.44
2023-05-03T15:59:58.383Z,15.31
2023-05-03T16:02:25.067Z,15.31
2023-05-03T16:04:51.717Z,15.31
2023-05-03T16:07:18.453Z,15.13
2023-05-03T16:09:46.214Z,15.06
2023-05-03T16:12:12.821Z,15.31
2023-05-03T16:14:40.038Z,15.44
2023-05-03T16:17:06.754Z,15.19
2023-05-03T16:19:33.423Z,15.25
2023-05-03T16:22:00.132Z,15.19
2023-05-03T16:24:26.963Z,15.25
2023-05-03T16:26:53.590Z,15.25
2023-05-03T16:29:20.961Z,15.19
2023-05-03T16:31:47.678Z,15.13
2023-05-03T16:34:14.424Z,14.94
2023-05-03T16:36:43.026Z,15.13
2023-05-03T16:39:13.574Z,15.13
2023-05-03T16:41:40.990Z,15.06
2023-05-03T16:44:08.836Z,15.06
2023-05-03T16:46:36.739Z,15.06
2023-05-03T16:49:07.113Z,15.06
2023-05-03T16:51:34.044Z,15.00
2023-05-03T16:54:04.274Z,15.13
2023-05-03T16:56:31.285Z,15.00
2023-05-03T16:59:01.896Z,15.00
2023-05-03T17:01:28.512Z,14.94
2023-05-03T17:03:55.228Z,14.94
2023-05-03T17:06:22.226Z,15.06
2023-05-03T17:08:48.836Z,15.00
2023-05-03T17:11:16.133Z,14.81
2023-05-03T17:13:42.748Z,14.88
2023-05-03T17:16:11.796Z,14.88
2023-05-03T17:18:40.341Z,14.75
2023-05-03T17:21:08.417Z,14.75
2023-05-03T17:23:37.989Z,14.81
2023-05-03T17:26:10.182Z,14.63
2023-05-03T17:28:37.361Z,14.44
2023-05-03T17:31:04.256Z,14.25
2023-05-03T17:33:30.949Z,14.13
2023-05-03T17:35:57.766Z,14.00
2023-05-03T17:38:24.424Z,13.88
2023-05-03T17:40:51.306Z,13.88
2023-05-03T17:43:18.065Z,14.06
2023-05-03T17:45:47.278Z,13.81
2023-05-03T17:48:14.504Z,13.81
2023-05-03T17:50:43.138Z,13.88
2023-05-03T17:53:09.818Z,14.13
2023-05-03T17:55:40.425Z,14.00
2023-05-03T17:58:07.197Z,13.75
2023-05-03T18:00:33.948Z,13.81
2023-05-03T18:03:01.079Z,13.69
2023-05-03T18:05:28.009Z,13.56
2023-05-03T18:07:54.661Z,13.44
2023-05-03T18:10:21.361Z,13.44
2023-05-03T18:12:48.053Z,13.25
2023-05-03T18:15:15.736Z,13.19
2023-05-03T18:17:42.834Z,13.06
2023-05-03T18:20:10.140Z,13.06
2023-05-03T18:22:37.649Z,13.00
2023-05-03T18:25:07.294Z,13.00
2023-05-03T18:27:37.312Z,12.75
2023-05-03T18:30:06.744Z,12.75
2023-05-03T18:32:34.344Z,12.63
2023-05-03T18:35:01.277Z,12.50
2023-05-03T18:37:28.454Z,12.63
2023-05-03T18:39:55.285Z,12.44
2023-05-03T18:42:22.722Z,12.31
2023-05-03T18:44:49.651Z,12.19
2023-05-03T18:47:20.741Z,12.19
2023-05-03T18:49:50.487Z,12.13
2023-05-03T18:52:17.243Z,12.19
2023-05-03T18:54:43.891Z,11.94
2023-05-03T18:57:11.680Z,12.00
2023-05-03T18:59:45.628Z,11.88
2023-05-03T19:02:15.714Z,11.75
2023-05-03T19:04:43.168Z,11.69
2023-05-03T19:07:10.531Z,11.63
2023-05-03T19:09:40.441Z,11.69
2023-05-03T19:12:08.536Z,11.88
2023-05-03T19:14:40.943Z,11.56
2023-05-03T19:17:08.501Z,11.44
2023-05-03T19:19:35.370Z,11.38
2023-05-03T19:22:02.573Z,11.25
2023-05-03T19:24:29.591Z,11.25
2023-05-03T19:26:56.268Z,11.38
2023-05-03T19:29:22.946Z,11.31
2023-05-03T19:31:49.886Z,11.19
2023-05-03T19:34:16.561Z,11.13
2023-05-03T19:36:43.148Z,11.13
2023-05-03T19:39:13.488Z,10.94
2023-05-03T19:41:41.154Z,10.88
2023-05-03T19:44:07.719Z,10.88
2023-05-03T19:46:34.330Z,10.88
2023-05-03T19:49:01.721Z,10.69
2023-05-03T19:51:28.554Z,10.56
2023-05-03T19:53:55.982Z,10.50
2023-05-03T19:56:23.373Z,10.50
2023-05-03T19:58:50.748Z,10.69
2023-05-03T20:01:17.597Z,10.69
2023-05-03T20:03:44.571Z,10.81
2023-05-03T20:06:11.423Z,10.75
2023-05-03T20:08:38.083Z,10.75
2023-05-03T20:11:04.837Z,10.63
2023-05-03T20:13:31.735Z,10.75
2023-05-03T20:15:58.433Z,10.81
2023-05-03T20:18:25.120Z,10.75
2023-05-03T20:20:51.759Z,10.63
2023-05-03T20:23:18.421Z,10.50
2023-05-03T20:25:45.036Z,10.56
2023-05-03T20:28:11.659Z,10.56
2023-05-03T20:30:38.383Z,10.50
2023-05-03T20:33:05.036Z,10.31
2023-05-03T20:35:31.669Z,10.38
2023-05-03T20:37:58.274Z,10.31
2023-05-03T20:40:24.957Z,10.19
2023-05-03T20:42:51.871Z,10.13
2023-05-03T20:45:18.579Z,10.06
2023-05-03T20:47:45.952Z,10.06
2023-05-03T20:50:12.543Z,10.06
2023-05-03T20:52:39.142Z,10.00
2023-05-03T20:55:06.130Z,10.00
2023-05-03T20:57:32.762Z,9.94
2023-05-03T21:00:00.044Z,9.94
2023-05-03T21:02:26.862Z,9.69
2023-05-03T21:04:53.553Z,9.63
2023-05-03T21:07:20.651Z,9.63
2023-05-03T21:09:47.250Z,9.69
2023-05-03T21:12:13.904Z,9.63
2023-05-03T21:14:40.535Z,9.38
2023-05-03T21:17:08.813Z,9.25
2023-05-03T21:19:35.425Z,9.38
2023-05-03T21:22:02.698Z,9.31
2023-05-03T21:24:30.991Z,9.38
2023-05-03T21:26:58.790Z,9.31
2023-05-03T21:29:25.373Z,9.31
2023-05-03T21:31:52.258Z,9.38
2023-05-03T21:34:18.999Z,9.19
2023-05-03T21:36:45.547Z,9.00
2023-05-03T21:39:12.315Z,9.13
2023-05-03T21:41:39.169Z,9.00
2023-05-03T21:44:05.807Z,8.75
2023-05-03T21:46:32.576Z,8.81
2023-05-03T21:48:59.270Z,8.81
2023-05-03T21:51:25.951Z,8.81
2023-05-03T21:53:52.683Z,8.88
2023-05-03T21:56:19.272Z,8.75
2023-05-03T21:58:45.912Z,8.69
2023-05-03T22:01:22.468Z,8.63
2023-05-03T22:03:50.176Z,8.56
2023-05-03T22:06:17.067Z,8.50
2023-05-03T22:08:43.741Z,8.56
2023-05-03T22:11:11.431Z,8.63
2023-05-03T22:13:49.733Z,8.50
2023-05-03T22:16:24.980Z,8.50
2023-05-03T22:18:51.693Z,8.38
2023-05-03T22:21:18.521Z,8.38
2023-05-03T22:23:45.093Z,8.50
2023-05-03T22:26:12.430Z,8.38
2023-05-03T22:28:39.038Z,8.44
2023-05-03T22:31:06.224Z,8.19
2023-05-03T22:33:32.935Z,8.19
2023-05-03T22:35:59.515Z,8.06
2023-05-03T22:38:26.274Z,8.19
2023-05-03T22:40:52.848Z,8.19
2023-05-03T22:43:19.583Z,8.19
2023-05-03T22:45:46.260Z,8.19
2023-05-03T22:48:12.914Z,8.19
2023-05-03T22:50:39.488Z,8.19
2023-05-03T22:53:06.190Z,8.19
2023-05-03T22:55:33.243Z,8.13
2023-05-03T22:57:59.884Z,8.13
2023-05-03T23:00:26.908Z,8.13
2023-05-03T23:02:53.727Z,8.06
2023-05-03T23:05:20.662Z,8.06
2023-05-03T23:07:47.330Z,8.19
2023-05-03T23:10:13.998Z,8.19
2023-05-03T23:12:40.663Z,8.00
2023-05-03T23:15:07.675Z,7.94
2023-05-03T23:17:34.463Z,8.00
2023-05-03T23:20:01.352Z,8.31
2023-05-03T23:22:28.326Z,8.06
2023-05-03T23:24:54.959Z,8.06
2023-05-03T23:27:21.599Z,7.88
2023-05-03T23:29:49.024Z,8.00
2023-05-03T23:32:16.004Z,8.13
2023-05-03T23:34:43.514Z,8.00
2023-05-03T23:37:10.085Z,7.81
2023-05-03T23:39:37.105Z,7.81
2023-05-03T23:42:03.783Z,7.69
2023-05-03T23:44:46.404Z,7.75
2023-05-03T23:47:16.969Z,7.94
2023-05-03T23:49:43.550Z,7.75
2023-05-03T23:52:10.332Z,7.75
2023-05-03T23:54:36.890Z,7.69
2023-05-03T23:57:03.621Z,7.69
2023-05-03T23:59:30.306Z,8.00
